Time;durP1;ratioP1;P1;durP2;ratioP2;P2;SDS_P1;SDS_P2;PMS_P1;PMS_P2;Temp;Humidity;BMP_temperature;BMP_pressure;BME280_temperature;BME280_humidity;BME280_pressure;Samples;Min_cycle;Max_cycle;Signal;HPM_P1;HPM_P2
2023/06/26 00:00:06;;;;;;;9.17;8.20;;;;;;;22.37;50.70;157118.28;5056849;28;20425;-84
2023/06/26 00:02:33;;;;;;;9.80;8.73;;;;;;;22.32;51.36;157105.16;5068794;28;20844;-84
2023/06/26 00:05:02;;;;;;;9.00;8.13;;;;;;;22.30;51.13;157099.94;5062275;28;20447;-84
2023/06/26 00:07:29;;;;;;;9.50;8.50;;;;;;;22.31;51.08;157102.59;5070676;28;20438;-84
2023/06/26 00:09:57;;;;;;;11.43;9.00;;;;;;;22.30;51.03;157101.25;5064470;28;20466;-84
2023/06/26 00:12:23;;;;;;;9.33;8.43;;;;;;;22.30;50.72;157099.94;5072555;28;20556;-84
2023/06/26 00:14:50;;;;;;;8.20;7.50;;;;;;;22.29;50.95;157098.63;5066268;28;20472;-84
2023/06/26 00:17:16;;;;;;;9.23;8.20;;;;;;;22.28;51.16;157094.75;5085718;28;20866;-84
2023/06/26 00:19:43;;;;;;;9.00;7.70;;;;;;;22.25;51.14;157088.22;5066910;28;20450;-84
2023/06/26 00:22:09;;;;;;;8.17;7.13;;;;;;;22.23;51.19;157081.69;5075502;28;20449;-84
2023/06/26 00:24:36;;;;;;;9.07;8.17;;;;;;;22.21;50.34;157077.75;5074271;28;20542;-84
2023/06/26 00:27:04;;;;;;;9.30;8.40;;;;;;;22.19;51.26;157071.22;5065588;28;20463;-84
2023/06/26 00:29:30;;;;;;;9.70;8.73;;;;;;;22.12;51.50;157052.94;5041497;28;20467;-84
2023/06/26 00:31:57;;;;;;;9.33;8.33;;;;;;;22.07;51.54;157041.22;5048936;28;20872;-84
2023/06/26 00:34:24;;;;;;;9.20;8.03;;;;;;;22.02;52.00;157026.84;5068098;28;20449;-84
2023/06/26 00:36:51;;;;;;;10.33;7.90;;;;;;;21.99;52.24;157020.31;5051932;28;20464;-84
2023/06/26 00:39:17;;;;;;;9.50;8.60;;;;;;;21.94;52.49;157007.25;5045190;28;20468;-84
2023/06/26 00:41:44;;;;;;;12.20;9.53;;;;;;;21.90;52.14;156995.47;5065837;28;21911;-84
2023/06/26 00:44:12;;;;;;;9.67;8.63;;;;;;;21.88;52.56;156991.56;5042231;28;20501;-84
2023/06/26 00:46:39;;;;;;;9.80;8.90;;;;;;;21.86;52.53;156986.38;5052102;28;20461;-84
2023/06/26 00:49:06;;;;;;;9.60;8.60;;;;;;;21.84;52.73;156982.38;5058586;28;20474;-84
2023/06/26 00:51:33;;;;;;;10.03;8.17;;;;;;;21.84;52.74;156982.38;5081842;28;20807;-84
2023/06/26 00:54:00;;;;;;;9.47;8.50;;;;;;;21.81;52.80;156974.56;5077360;28;20963;-84
2023/06/26 00:56:28;;;;;;;8.20;7.27;;;;;;;21.78;52.73;156966.75;5063284;28;20446;-84
2023/06/26 00:58:54;;;;;;;9.10;8.20;;;;;;;21.72;52.78;156951.06;5050648;28;20455;-84
2023/06/26 01:01:25;;;;;;;8.93;8.03;;;;;;;21.72;53.21;156949.75;5048689;28;20535;-84
2023/06/26 01:03:52;;;;;;;9.20;8.30;;;;;;;21.64;53.30;156930.16;5081300;28;20452;-84
2023/06/26 01:06:21;;;;;;;9.50;8.50;;;;;;;21.62;53.08;156924.97;5077222;28;20516;-84
2023/06/26 01:08:48;;;;;;;9.73;8.73;;;;;;;21.64;53.18;156930.16;5061430;28;20472;-84
2023/06/26 01:11:17;;;;;;;10.10;9.10;;;;;;;21.66;52.90;156934.06;5057780;28;21008;-84
2023/06/26 01:13:44;;;;;;;9.10;7.70;;;;;;;21.61;52.98;156922.31;5062646;28;20445;-84
2023/06/26 01:16:11;;;;;;;9.83;8.60;;;;;;;21.60;53.34;156919.75;5073001;28;20528;-84
2023/06/26 01:18:42;;;;;;;10.10;8.10;;;;;;;21.57;53.33;156910.59;5085278;28;20569;-84
2023/06/26 01:21:10;;;;;;;9.57;8.60;;;;;;;21.57;53.60;156910.59;5089395;28;20834;-84
2023/06/26 01:23:40;;;;;;;8.53;7.63;;;;;;;21.54;53.20;156904.06;5059153;28;20448;-84
2023/06/26 01:26:20;;;;;;;8.97;8.17;;;;;;;21.51;53.14;156894.91;5072176;28;20436;-84
2023/06/26 01:28:47;;;;;;;9.03;8.13;;;;;;;21.47;53.49;156885.75;5071298;28;21029;-84
2023/06/26 01:31:14;;;;;;;9.07;7.63;;;;;;;21.43;53.95;156874.03;5057614;28;20446;-84
2023/06/26 01:33:41;;;;;;;10.23;8.40;;;;;;;21.40;53.94;156866.19;5075858;28;20445;-84
2023/06/26 01:36:08;;;;;;;8.33;7.53;;;;;;;21.37;54.08;156858.34;5067633;28;20533;-84
2023/06/26 01:38:36;;;;;;;8.17;7.37;;;;;;;21.36;54.11;156855.75;5048283;28;20455;-84
2023/06/26 01:41:03;;;;;;;8.80;7.97;;;;;;;21.34;54.52;156850.56;5086591;28;21154;-84
2023/06/26 01:43:37;;;;;;;9.50;8.50;;;;;;;21.28;54.03;156834.88;5060071;28;20977;-84
2023/06/26 01:46:06;;;;;;;10.43;8.43;;;;;;;21.28;53.94;156834.88;5056242;28;21347;-84
2023/06/26 01:48:35;;;;;;;9.00;8.10;;;;;;;21.24;54.42;156827.03;5049420;28;20473;-83
2023/06/26 01:51:03;;;;;;;9.40;8.40;;;;;;;21.22;53.90;156820.53;5052754;28;20529;-83
2023/06/26 01:53:34;;;;;;;9.13;7.70;;;;;;;21.20;54.21;156815.31;5051665;28;21003;-83
2023/06/26 01:56:02;;;;;;;9.30;8.40;;;;;;;21.17;54.08;156808.78;5074957;28;20493;-83
2023/06/26 01:58:28;;;;;;;8.20;7.40;;;;;;;21.16;54.10;156804.84;5066283;28;20461;-83
2023/06/26 02:00:57;;;;;;;9.17;8.27;;;;;;;21.16;54.00;156804.84;5082764;28;20535;-83
2023/06/26 02:03:24;;;;;;;9.00;8.20;;;;;;;21.11;54.32;156791.81;5072184;28;20461;-83
2023/06/26 02:05:51;;;;;;;10.10;8.47;;;;;;;21.06;54.82;156778.69;5073037;28;20480;-83
2023/06/26 02:08:17;;;;;;;8.43;7.43;;;;;;;21.04;54.50;156773.50;5068496;28;20805;-83
2023/06/26 02:10:49;;;;;;;9.30;8.27;;;;;;;21.03;54.63;156772.19;5081550;28;20452;-83
2023/06/26 02:13:16;;;;;;;8.80;7.97;;;;;;;21.01;55.24;156765.66;5078118;28;20468;-83
2023/06/26 02:15:43;;;;;;;8.90;8.00;;;;;;;20.96;54.13;156752.63;5050673;28;20453;-83
2023/06/26 02:18:11;;;;;;;9.23;8.40;;;;;;;20.95;54.79;156751.31;5089731;28;20971;-83
2023/06/26 02:20:37;;;;;;;9.10;8.20;;;;;;;20.94;55.29;156748.69;5060385;28;20481;-83
2023/06/26 02:23:04;;;;;;;9.43;8.53;;;;;;;20.91;55.52;156739.56;5062749;28;20465;-83
2023/06/26 02:25:30;;;;;;;10.10;9.10;;;;;;;20.90;55.46;156736.94;5089646;28;20453;-83
2023/06/26 02:27:57;;;;;;;9.13;8.23;;;;;;;20.91;55.85;156739.56;5070606;28;20461;-83
2023/06/26 02:30:24;;;;;;;8.83;7.93;;;;;;;20.88;55.48;156733.06;5083829;28;20484;-83
2023/06/26 02:32:50;;;;;;;9.20;8.30;;;;;;;20.85;55.51;156723.91;5079682;28;20487;-83
2023/06/26 02:35:20;;;;;;;9.00;8.10;;;;;;;20.78;55.90;156706.97;5082391;28;20999;-83
2023/06/26 02:37:46;;;;;;;8.47;7.67;;;;;;;20.74;55.76;156696.50;5066059;28;21011;-83
2023/06/26 02:40:13;;;;;;;8.23;7.53;;;;;;;20.72;55.94;156689.97;5065937;28;20887;-83
2023/06/26 02:42:41;;;;;;;8.10;7.30;;;;;;;20.72;55.58;156689.97;5049914;28;20458;-83
2023/06/26 02:45:10;;;;;;;9.90;8.50;;;;;;;20.71;55.67;156688.66;5086684;28;21622;-83
2023/06/26 02:47:39;;;;;;;7.90;7.20;;;;;;;20.70;55.76;156684.78;5074643;28;20593;-83
2023/06/26 02:50:06;;;;;;;9.33;8.27;;;;;;;20.69;55.90;156682.16;5055030;28;20485;-83
2023/06/26 02:52:52;;;;;;;8.57;7.73;;;;;;;20.72;55.78;156689.97;5073820;28;20718;-83
2023/06/26 02:55:19;;;;;;;8.87;7.97;;;;;;;20.71;55.58;156687.34;5049093;28;20515;-83
2023/06/26 02:57:46;;;;;;;8.07;7.37;;;;;;;20.69;55.76;156682.16;5063584;28;21008;-83
2023/06/26 03:00:14;;;;;;;8.17;7.37;;;;;;;20.65;56.03;156674.31;5083834;28;20468;-83
2023/06/26 03:02:46;;;;;;;8.50;7.70;;;;;;;20.63;56.60;156667.78;5077395;28;20461;-83
2023/06/26 03:05:16;;;;;;;8.90;8.00;;;;;;;20.57;56.61;156653.44;5057845;28;20489;-83
2023/06/26 03:07:43;;;;;;;8.70;7.90;;;;;;;20.52;57.47;156639.06;5070523;28;20580;-83
2023/06/26 03:10:12;;;;;;;8.17;7.37;;;;;;;20.48;57.27;156628.66;5065065;28;20465;-83
2023/06/26 03:12:38;;;;;;;8.63;7.57;;;;;;;20.45;57.26;156620.84;5082486;28;20771;-83
2023/06/26 03:15:05;;;;;;;9.17;8.27;;;;;;;20.43;57.59;156615.63;5078402;28;20812;-83
2023/06/26 03:17:33;;;;;;;8.57;7.77;;;;;;;20.41;57.95;156610.44;5052098;28;20480;-83
2023/06/26 03:20:06;;;;;;;8.10;7.30;;;;;;;20.38;58.11;156603.91;5061790;28;20446;-83
2023/06/26 03:22:56;;;;;;;8.27;7.50;;;;;;;20.38;58.22;156603.91;5093105;28;20858;-83
2023/06/26 03:25:25;;;;;;;8.50;7.70;;;;;;;20.37;58.07;156599.97;5052696;28;20461;-83
2023/06/26 03:28:02;;;;;;;9.53;7.43;;;;;;;20.35;58.38;156596.06;5050173;28;20471;-83
2023/06/26 03:30:29;;;;;;;8.30;7.50;;;;;;;20.30;58.64;156583.03;5061039;28;20822;-83
2023/06/26 03:32:57;;;;;;;8.77;7.87;;;;;;;20.32;58.50;156588.25;5053462;28;20857;-83
2023/06/26 03:35:24;;;;;;;8.93;8.13;;;;;;;20.32;58.75;156588.25;5068543;28;20445;-83
2023/06/26 03:37:51;;;;;;;9.00;8.10;;;;;;;20.33;59.00;156589.56;5046411;28;20449;-83
2023/06/26 03:40:17;;;;;;;8.30;7.40;;;;;;;20.32;59.09;156586.94;5063138;28;20449;-83
2023/06/26 03:42:46;;;;;;;8.70;7.80;;;;;;;20.29;59.11;156579.09;5038058;28;20481;-83
2023/06/26 03:45:12;;;;;;;9.70;8.10;;;;;;;20.31;59.45;156584.31;5047114;28;20455;-83
2023/06/26 03:47:40;;;;;;;8.57;7.70;;;;;;;20.33;59.32;156590.81;5047751;28;20578;-83
2023/06/26 03:50:08;;;;;;;9.70;8.67;;;;;;;20.34;59.87;156592.13;5070541;28;20461;-83
2023/06/26 03:52:35;;;;;;;8.40;7.60;;;;;;;20.35;60.14;156594.75;5070618;28;20449;-83
2023/06/26 03:55:02;;;;;;;8.07;7.37;;;;;;;20.35;59.94;156596.06;5068620;28;20468;-83
2023/06/26 03:57:29;;;;;;;8.77;7.87;;;;;;;20.36;60.22;156598.66;5067459;28;20792;-84
2023/06/26 03:59:57;;;;;;;8.33;7.53;;;;;;;20.37;60.20;156601.28;5069264;28;20561;-83
2023/06/26 04:02:23;;;;;;;9.73;8.73;;;;;;;20.40;60.00;156609.09;5055726;28;20500;-84
2023/06/26 04:04:51;;;;;;;8.93;8.03;;;;;;;20.46;59.88;156624.78;5057757;28;21060;-83
2023/06/26 04:07:18;;;;;;;9.10;8.20;;;;;;;20.48;60.12;156629.97;5052170;28;20785;-83
2023/06/26 04:09:45;;;;;;;9.07;8.27;;;;;;;20.53;60.05;156643.03;5045867;28;20467;-83
2023/06/26 04:12:12;;;;;;;9.90;8.90;;;;;;;20.67;59.72;156676.94;5054757;28;20881;-83
2023/06/26 04:14:38;;;;;;;8.97;8.10;;;;;;;20.82;59.77;156716.06;5051728;28;20781;-83
2023/06/26 04:17:06;;;;;;;9.40;8.50;;;;;;;20.98;58.90;156757.81;5076455;28;20448;-83
2023/06/26 04:19:33;;;;;;;9.43;8.47;;;;;;;21.15;59.04;156802.25;5081860;28;20480;-84
2023/06/26 04:22:00;;;;;;;11.60;8.17;;;;;;;21.34;58.49;156850.56;5066052;28;21053;-83
2023/06/26 04:24:26;;;;;;;8.90;8.00;;;;;;;21.53;57.91;156900.13;5070117;28;20441;-84
2023/06/26 04:26:56;;;;;;;8.53;7.63;;;;;;;21.69;57.03;156943.22;5072998;28;20440;-84
2023/06/26 04:29:25;;;;;;;8.77;7.97;;;;;;;21.83;56.60;156979.78;5068120;28;21050;-84
2023/06/26 04:31:52;;;;;;;9.20;8.10;;;;;;;21.98;56.46;157016.38;5065812;28;20470;-85
2023/06/26 04:34:20;;;;;;;9.30;8.40;;;;;;;22.14;56.11;157058.16;5082210;28;20480;-85
2023/06/26 04:36:47;;;;;;;9.30;8.40;;;;;;;22.28;55.28;157094.75;5069797;28;20798;-84
2023/06/26 04:39:14;;;;;;;8.30;7.50;;;;;;;22.42;55.23;157131.31;5071938;28;20465;-84
2023/06/26 04:41:41;;;;;;;9.33;8.53;;;;;;;22.56;54.91;157166.59;5072410;28;20536;-85
2023/06/26 04:44:07;;;;;;;8.70;7.90;;;;;;;22.72;54.61;157209.72;5066630;28;20477;-85
2023/06/26 04:46:34;;;;;;;8.67;7.87;;;;;;;22.89;54.54;157252.84;5071300;28;20969;-85
2023/06/26 04:49:03;;;;;;;8.30;7.50;;;;;;;23.02;53.95;157286.81;5069402;28;20469;-85
2023/06/26 04:51:31;;;;;;;8.67;7.70;;;;;;;23.11;54.10;157310.38;5066163;28;20829;-85
2023/06/26 04:53:57;;;;;;;9.40;8.40;;;;;;;23.16;53.66;157322.13;5065570;28;20933;-85
2023/06/26 04:56:24;;;;;;;8.70;7.90;;;;;;;23.26;53.55;157348.25;5062062;28;20548;-85
2023/06/26 04:58:51;;;;;;;8.80;7.97;;;;;;;23.40;53.17;157384.91;5065896;28;20453;-84
2023/06/26 05:01:17;;;;;;;8.60;7.80;;;;;;;23.56;53.06;157426.75;5062447;28;20445;-85
2023/06/26 05:03:45;;;;;;;8.90;8.00;;;;;;;23.70;52.79;157462.00;5063174;28;20550;-85
2023/06/26 05:06:11;;;;;;;7.80;7.10;;;;;;;23.79;52.03;157485.53;5056847;28;20808;-85
2023/06/26 05:08:39;;;;;;;10.83;7.90;;;;;;;23.90;51.94;157514.31;5050940;28;20870;-85
2023/06/26 05:11:06;;;;;;;8.93;7.43;;;;;;;24.06;51.64;157557.47;5078792;28;20475;-85
2023/06/26 05:13:32;;;;;;;9.60;8.60;;;;;;;24.17;51.21;157585.00;5063072;28;20449;-85
2023/06/26 05:15:59;;;;;;;9.30;7.73;;;;;;;24.30;51.06;157619.00;5061509;28;20523;-85
2023/06/26 05:18:25;;;;;;;9.20;8.30;;;;;;;24.48;51.00;157664.75;5077643;28;20461;-84
2023/06/26 05:20:53;;;;;;;8.90;8.03;;;;;;;24.64;50.47;157706.63;5064641;28;20458;-85
2023/06/26 05:23:19;;;;;;;8.67;7.87;;;;;;;24.77;50.11;157741.94;5057048;28;20449;-85
2023/06/26 05:25:49;;;;;;;8.07;7.27;;;;;;;24.92;49.85;157778.59;5049424;28;20446;-84
2023/06/26 05:28:17;;;;;;;8.20;7.50;;;;;;;25.05;49.60;157812.59;5071378;28;20811;-84
2023/06/26 05:30:44;;;;;;;8.93;8.03;;;;;;;25.20;49.71;157853.22;5054171;28;20465;-84
2023/06/26 05:33:11;;;;;;;8.30;7.60;;;;;;;25.36;48.85;157895.03;5068804;28;20490;-84
2023/06/26 05:35:38;;;;;;;8.80;7.97;;;;;;;25.46;49.15;157920.00;5062395;28;20840;-84
2023/06/26 05:38:06;;;;;;;8.53;7.80;;;;;;;25.55;48.91;157942.25;5066184;28;20462;-84
2023/06/26 05:40:34;;;;;;;8.90;8.10;;;;;;;25.63;48.34;157964.47;5078113;28;20537;-85
2023/06/26 05:43:03;;;;;;;9.00;8.10;;;;;;;25.82;48.24;158014.22;5064318;28;20456;-85
2023/06/26 05:45:29;;;;;;;8.70;7.80;;;;;;;25.94;47.67;158044.34;5065205;28;20502;-85
2023/06/26 05:47:56;;;;;;;9.27;8.40;;;;;;;26.06;48.05;158075.75;5051695;28;20524;-85
2023/06/26 05:50:23;;;;;;;9.50;8.70;;;;;;;26.26;47.22;158128.22;5058948;28;20470;-85
2023/06/26 05:52:50;;;;;;;8.97;7.67;;;;;;;26.42;46.80;158168.81;5077816;28;20463;-85
2023/06/26 05:55:17;;;;;;;9.10;8.30;;;;;;;26.46;47.34;158180.56;5081300;28;20461;-85
2023/06/26 05:57:44;;;;;;;8.93;8.13;;;;;;;26.58;47.22;158212.00;5063885;28;20450;-85
2023/06/26 06:00:13;;;;;;;8.87;7.97;;;;;;;26.79;46.70;158265.78;5076710;28;20469;-85
2023/06/26 06:02:41;;;;;;;8.43;7.63;;;;;;;26.94;47.02;158303.75;5071377;28;20454;-85
2023/06/26 06:05:08;;;;;;;9.17;8.37;;;;;;;27.00;46.74;158319.47;5060094;28;20876;-85
2023/06/26 06:07:35;;;;;;;8.90;8.10;;;;;;;27.11;45.77;158348.31;5072407;28;20559;-86
2023/06/26 06:10:02;;;;;;;8.60;7.80;;;;;;;27.19;46.16;158370.56;5062984;28;20474;-85
2023/06/26 06:12:29;;;;;;;8.50;7.80;;;;;;;27.33;45.76;158405.94;5066273;28;20489;-78
2023/06/26 06:14:56;;;;;;;8.23;7.53;;;;;;;27.56;45.55;158466.25;5076299;28;21325;-78
2023/06/26 06:17:24;;;;;;;7.97;7.37;;;;;;;27.70;44.93;158502.97;5077488;28;20465;-78
2023/06/26 06:19:50;;;;;;;8.57;7.77;;;;;;;27.82;44.60;158531.81;5076372;28;20446;-78
2023/06/26 06:22:19;;;;;;;8.50;7.70;;;;;;;27.97;45.21;158571.13;5045306;28;20464;-78
2023/06/26 06:24:45;;;;;;;9.13;8.33;;;;;;;28.21;44.95;158634.09;5064803;28;20473;-78
2023/06/26 06:27:13;;;;;;;8.23;7.43;;;;;;;28.31;43.96;158661.63;5063163;28;20888;-78
2023/06/26 06:29:39;;;;;;;8.50;7.80;;;;;;;28.38;43.99;158678.72;5078037;28;20469;-78
2023/06/26 06:32:06;;;;;;;8.90;8.10;;;;;;;28.52;43.86;158714.06;5076073;28;21003;-78
2023/06/26 06:34:36;;;;;;;7.93;7.33;;;;;;;28.56;44.00;158725.91;5057397;28;20461;-78
2023/06/26 06:37:03;;;;;;;9.80;8.80;;;;;;;28.64;43.04;158745.63;5076507;28;20446;-78
2023/06/26 06:39:32;;;;;;;7.90;7.30;;;;;;;28.92;43.04;158820.38;5075888;28;20511;-79
2023/06/26 06:41:59;;;;;;;8.17;7.40;;;;;;;29.13;42.29;158874.16;5073267;28;20454;-79
2023/06/26 06:44:25;;;;;;;8.67;7.90;;;;;;;29.21;42.34;158893.88;5041196;28;20517;-79
2023/06/26 06:46:52;;;;;;;8.07;7.37;;;;;;;29.33;42.11;158925.38;5055443;28;20458;-79
2023/06/26 06:49:19;;;;;;;8.47;7.57;;;;;;;29.43;41.65;158951.63;5051601;28;20494;-79
2023/06/26 06:51:47;;;;;;;9.07;8.20;;;;;;;29.55;41.42;158983.09;5055916;28;20530;-79
2023/06/26 06:54:16;;;;;;;7.70;7.00;;;;;;;29.64;41.31;159006.72;5056355;28;20884;-79
2023/06/26 06:56:42;;;;;;;8.50;7.70;;;;;;;29.71;41.38;159025.09;5074156;28;20995;-78
2023/06/26 06:59:09;;;;;;;8.07;7.37;;;;;;;29.81;41.34;159050.09;5071419;28;20545;-79
2023/06/26 07:01:35;;;;;;;8.27;7.47;;;;;;;30.02;40.82;159106.50;5055742;28;20466;-79
2023/06/26 07:04:03;;;;;;;8.63;7.93;;;;;;;30.12;40.54;159131.47;5074789;28;20498;-79
2023/06/26 07:06:30;;;;;;;7.97;7.37;;;;;;;30.39;39.78;159202.41;5073351;28;21002;-79
2023/06/26 07:08:58;;;;;;;8.30;7.60;;;;;;;30.56;38.81;159245.69;5075112;28;20831;-79
2023/06/26 07:11:35;;;;;;;10.10;7.23;;;;;;;30.69;39.85;159279.84;5075122;28;20500;-79
2023/06/26 07:14:03;;;;;;;7.80;7.20;;;;;;;30.78;39.34;159303.50;5077101;28;20963;-79
2023/06/26 07:16:30;;;;;;;7.83;7.13;;;;;;;30.78;38.73;159303.50;5075241;28;21094;-79
2023/06/26 07:18:57;;;;;;;7.93;7.23;;;;;;;30.91;38.10;159336.31;5079638;28;20457;-79
2023/06/26 07:21:23;;;;;;;7.90;7.20;;;;;;;31.12;37.98;159392.84;5058718;28;20518;-79
2023/06/26 07:23:50;;;;;;;7.57;6.90;;;;;;;31.32;36.84;159444.09;5073927;28;20816;-79
2023/06/26 07:26:18;;;;;;;7.10;6.50;;;;;;;31.56;36.66;159507.16;5075314;28;20812;-79
2023/06/26 07:28:44;;;;;;;7.80;7.10;;;;;;;31.72;35.93;159547.91;5075990;28;20452;-79
2023/06/26 07:31:11;;;;;;;6.80;6.20;;;;;;;31.88;36.37;159589.91;5072717;28;20484;-79
2023/06/26 07:33:37;;;;;;;7.80;7.10;;;;;;;31.78;36.22;159563.66;5072223;28;20462;-79
2023/06/26 07:36:04;;;;;;;8.00;6.40;;;;;;;31.97;35.45;159613.59;5058100;28;20459;-79
2023/06/26 07:38:31;;;;;;;7.83;7.23;;;;;;;32.24;35.17;159684.63;5076198;28;21152;-79
2023/06/26 07:40:57;;;;;;;7.20;6.50;;;;;;;32.48;35.33;159746.41;5075510;28;20525;-79
2023/06/26 07:43:25;;;;;;;7.57;6.97;;;;;;;32.68;34.35;159797.69;5063218;28;20878;-80
2023/06/26 07:45:53;;;;;;;8.13;6.40;;;;;;;32.72;35.07;159809.53;5075864;28;20527;-79
2023/06/26 07:48:19;;;;;;;7.80;7.20;;;;;;;32.89;34.29;159852.91;5058106;28;20511;-79
2023/06/26 07:50:46;;;;;;;7.53;6.20;;;;;;;32.80;34.67;159830.59;5072929;28;20902;-79
2023/06/26 07:53:12;;;;;;;7.63;6.93;;;;;;;32.87;34.40;159847.66;5076778;28;20453;-79
2023/06/26 07:55:39;;;;;;;7.67;7.07;;;;;;;32.94;34.47;159866.03;5074755;28;20917;-79
2023/06/26 07:58:06;;;;;;;8.17;7.47;;;;;;;33.09;34.96;159905.56;5041558;28;20454;-80
2023/06/26 08:00:33;;;;;;;8.10;7.40;;;;;;;33.33;33.53;159967.38;5073956;28;20442;-79
2023/06/26 08:03:00;;;;;;;7.80;7.20;;;;;;;33.31;34.45;159963.38;5075161;28;20787;-79
2023/06/26 08:05:27;;;;;;;7.50;6.90;;;;;;;33.41;33.73;159988.41;5074398;28;20442;-79
2023/06/26 08:07:55;;;;;;;7.60;7.00;;;;;;;33.48;33.39;160006.81;5071645;28;20914;-79
2023/06/26 08:10:22;;;;;;;7.90;7.30;;;;;;;33.60;33.54;160039.72;5074661;28;20452;-79
2023/06/26 08:12:50;;;;;;;7.83;7.10;;;;;;;33.74;33.79;160073.91;5073421;28;20819;-79
2023/06/26 08:15:16;;;;;;;7.80;7.20;;;;;;;33.77;32.87;160081.81;5071652;28;21037;-79
2023/06/26 08:17:45;;;;;;;7.70;7.07;;;;;;;33.92;32.84;160121.25;5075543;28;20460;-80
2023/06/26 08:20:12;;;;;;;8.20;7.60;;;;;;;34.09;31.97;160166.06;5074744;28;20538;-80
2023/06/26 08:22:39;;;;;;;10.47;7.43;;;;;;;33.72;33.05;160068.66;5059884;28;20458;-79
2023/06/26 08:25:06;;;;;;;8.67;7.97;;;;;;;33.09;34.02;159906.88;5059633;28;20457;-79
2023/06/26 08:27:33;;;;;;;7.70;7.10;;;;;;;33.04;34.03;159892.38;5056702;28;20530;-79
2023/06/26 08:29:59;;;;;;;7.80;7.10;;;;;;;33.35;33.23;159973.94;5056460;28;20445;-79
2023/06/26 08:32:26;;;;;;;8.07;7.23;;;;;;;33.54;32.43;160022.59;5061969;28;20485;-79
2023/06/26 08:34:54;;;;;;;8.27;7.57;;;;;;;33.50;33.36;160013.38;5072207;28;20473;-79
2023/06/26 08:37:20;;;;;;;9.10;8.40;;;;;;;33.39;33.60;159983.13;5076947;28;20469;-79
2023/06/26 08:39:47;;;;;;;10.57;7.20;;;;;;;33.21;33.57;159937.09;5057885;28;21031;-79
2023/06/26 08:42:13;;;;;;;8.90;8.20;;;;;;;33.32;33.27;159966.03;5072751;28;20446;-79
2023/06/26 08:44:40;;;;;;;9.20;8.50;;;;;;;33.32;33.79;159966.03;5056359;28;20818;-79
2023/06/26 08:47:07;;;;;;;8.40;7.50;;;;;;;33.44;34.20;159997.59;5072508;28;20553;-79
2023/06/26 08:49:38;;;;;;;8.40;7.70;;;;;;;33.72;33.25;160070.00;5071054;28;20690;-79
2023/06/26 08:52:11;;;;;;;8.53;7.83;;;;;;;33.52;32.54;160017.34;5072935;28;20534;-79
2023/06/26 08:54:44;;;;;;;7.63;7.03;;;;;;;33.51;33.15;160014.72;5072415;28;20473;-79
2023/06/26 08:57:10;;;;;;;7.53;6.93;;;;;;;33.84;32.03;160101.53;5074788;28;20452;-79
2023/06/26 08:59:37;;;;;;;7.40;6.67;;;;;;;33.95;31.97;160130.50;5073540;28;20442;-79
2023/06/26 09:02:04;;;;;;;7.80;7.20;;;;;;;33.98;32.58;160137.06;5075434;28;20966;-79
2023/06/26 09:04:31;;;;;;;8.60;7.90;;;;;;;33.69;32.51;160062.09;5069577;28;20513;-79
2023/06/26 09:06:58;;;;;;;7.33;6.73;;;;;;;33.67;32.68;160058.19;5073650;28;20445;-79
2023/06/26 09:09:29;;;;;;;8.60;7.80;;;;;;;33.70;32.57;160066.03;5073714;28;20451;-79
2023/06/26 09:11:56;;;;;;;7.60;6.97;;;;;;;33.61;33.18;160042.38;5054620;28;21061;-79
2023/06/26 09:14:22;;;;;;;13.03;6.63;;;;;;;33.72;32.06;160070.00;5065476;28;20549;-79
2023/06/26 09:16:49;;;;;;;8.07;7.47;;;;;;;33.84;32.79;160100.28;5070932;28;20445;-79
2023/06/26 09:19:16;;;;;;;7.80;7.17;;;;;;;33.90;31.88;160116.00;5074923;28;20448;-79
2023/06/26 09:21:44;;;;;;;7.20;6.70;;;;;;;33.93;32.47;160125.25;5075073;28;20859;-79
2023/06/26 09:24:11;;;;;;;7.10;6.60;;;;;;;34.06;32.79;160159.50;5074743;28;20457;-79
2023/06/26 09:26:40;;;;;;;7.57;7.00;;;;;;;34.13;32.25;160176.56;5062497;28;20819;-79
2023/06/26 09:29:07;;;;;;;7.20;6.60;;;;;;;34.08;32.19;160164.75;5064146;28;20547;-79
2023/06/26 09:31:36;;;;;;;7.87;7.17;;;;;;;34.00;31.59;160142.31;5075362;28;20484;-79
2023/06/26 09:34:03;;;;;;;7.70;7.07;;;;;;;34.05;32.46;160155.53;5063615;28;20441;-79
2023/06/26 09:36:32;;;;;;;6.87;6.37;;;;;;;34.18;31.70;160189.78;5058597;28;20460;-79
2023/06/26 09:39:00;;;;;;;8.17;7.40;;;;;;;34.10;32.15;160168.72;5076848;28;20453;-79
2023/06/26 09:41:27;;;;;;;7.30;6.70;;;;;;;33.92;32.21;160121.25;5074195;28;21209;-80
2023/06/26 09:43:56;;;;;;;7.13;6.60;;;;;;;33.79;31.96;160087.06;5059705;28;20452;-80
2023/06/26 09:46:27;;;;;;;7.20;6.60;;;;;;;33.67;32.17;160056.84;5075811;28;20468;-77
2023/06/26 09:48:59;;;;;;;7.83;7.23;;;;;;;33.55;33.28;160026.53;5045295;28;20822;-78
2023/06/26 09:51:26;;;;;;;7.43;6.87;;;;;;;33.39;32.96;159983.13;5064164;28;20500;-79
2023/06/26 09:53:53;;;;;;;7.83;7.10;;;;;;;33.11;32.66;159910.81;5058351;28;20449;-79
2023/06/26 09:56:21;;;;;;;7.80;7.10;;;;;;;32.75;33.46;159816.13;5056070;28;20486;-79
2023/06/26 09:58:48;;;;;;;8.47;7.67;;;;;;;32.38;33.81;159720.13;5078156;28;20519;-78
2023/06/26 10:01:16;;;;;;;8.10;7.50;;;;;;;32.03;34.27;159628.09;5074472;28;20971;-78
2023/06/26 10:03:42;;;;;;;8.10;7.50;;;;;;;32.12;34.97;159653.06;5057751;28;20898;-78
2023/06/26 10:06:10;;;;;;;7.23;6.73;;;;;;;32.10;34.53;159647.81;5062940;28;20450;-78
2023/06/26 10:08:38;;;;;;;7.60;7.00;;;;;;;32.18;35.06;159667.50;5050153;28;20464;-78
2023/06/26 10:11:05;;;;;;;7.63;7.03;;;;;;;32.45;35.01;159739.81;5041779;28;20846;-78
2023/06/26 10:13:32;;;;;;;7.37;6.60;;;;;;;32.49;34.72;159750.31;5072556;28;20465;-78
2023/06/26 10:16:00;;;;;;;9.07;8.30;;;;;;;32.55;34.59;159763.50;5077368;28;20453;-78
2023/06/26 10:18:28;;;;;;;7.77;7.07;;;;;;;32.42;35.47;159731.94;5075023;28;20461;-78
2023/06/26 10:20:56;;;;;;;8.20;7.47;;;;;;;32.46;34.80;159742.41;5075149;28;20481;-78
2023/06/26 10:23:24;;;;;;;8.33;7.50;;;;;;;32.62;35.34;159781.94;5058636;28;20453;-78
2023/06/26 10:25:52;;;;;;;8.20;7.50;;;;;;;32.89;34.91;159852.91;5066739;28;20457;-78
2023/06/26 10:28:20;;;;;;;8.60;7.80;;;;;;;33.06;34.53;159897.66;5058715;28;20535;-77
2023/06/26 10:30:47;;;;;;;8.87;7.73;;;;;;;33.23;34.71;159941.06;5073385;28;20526;-78
2023/06/26 10:33:14;;;;;;;7.83;7.23;;;;;;;33.09;34.92;159906.88;5071899;28;20488;-78
2023/06/26 10:35:45;;;;;;;8.63;7.93;;;;;;;32.57;35.93;159768.81;5043584;28;20449;-78
2023/06/26 10:38:12;;;;;;;8.60;8.00;;;;;;;31.80;37.74;159568.91;5065009;28;20465;-79
2023/06/26 10:40:43;;;;;;;9.30;8.60;;;;;;;31.78;37.97;159563.66;5072613;28;20484;-80
2023/06/26 10:43:11;;;;;;;8.80;8.10;;;;;;;31.71;37.44;159545.28;5058388;28;20442;-79
2023/06/26 10:45:44;;;;;;;9.60;8.70;;;;;;;31.15;38.24;159400.72;5074373;28;20437;-79
2023/06/26 10:48:10;;;;;;;9.07;8.37;;;;;;;31.16;39.25;159403.31;5074391;28;20496;-79
2023/06/26 10:50:38;;;;;;;10.13;9.23;;;;;;;31.44;38.00;159475.59;5075130;28;20457;-79
2023/06/26 10:53:15;;;;;;;8.80;8.10;;;;;;;31.66;38.12;159533.47;5070576;28;21082;-77
2023/06/26 10:55:43;;;;;;;8.97;8.17;;;;;;;31.81;37.93;159571.53;5075687;28;20463;-77
2023/06/26 10:58:28;;;;;;;9.00;8.30;;;;;;;31.97;38.17;159613.59;5065672;28;20564;-77
2023/06/26 11:01:15;;;;;;;8.87;8.17;;;;;;;32.29;36.96;159697.75;5074179;28;21053;-77
2023/06/26 11:03:43;;;;;;;8.80;8.03;;;;;;;32.56;36.84;159766.16;5075185;28;20453;-77
2023/06/26 11:06:13;;;;;;;9.30;8.50;;;;;;;32.77;36.11;159822.69;5055859;28;20458;-77
2023/06/26 11:08:48;;;;;;;8.83;8.17;;;;;;;32.86;36.09;159845.00;5069779;28;20507;-80
2023/06/26 11:11:15;;;;;;;8.67;7.87;;;;;;;32.86;35.89;159845.00;5058408;28;20461;-77
2023/06/26 11:13:43;;;;;;;8.70;8.00;;;;;;;32.90;35.85;159855.53;5058149;28;20514;-77
2023/06/26 11:16:09;;;;;;;9.00;8.30;;;;;;;33.02;35.80;159887.06;5073224;28;20987;-77
2023/06/26 11:18:36;;;;;;;9.40;8.60;;;;;;;33.15;36.23;159920.03;5073013;28;20454;-77
2023/06/26 11:21:07;;;;;;;9.23;8.33;;;;;;;33.26;36.38;159948.94;5062632;28;20453;-77
2023/06/26 11:23:34;;;;;;;9.53;8.73;;;;;;;33.32;35.42;159966.03;5075143;28;20832;-77
2023/06/26 11:26:15;;;;;;;8.70;7.83;;;;;;;33.36;35.22;159976.53;5074219;28;20450;-77